createdAt,value
2023-02-06T00:02:06.405Z,6.57
2023-02-06T00:04:33.753Z,6.30
2023-02-06T00:07:01.180Z,4.93
2023-02-06T00:09:29.992Z,6.83
2023-02-06T00:12:09.685Z,5.17
2023-02-06T00:18:12.044Z,5.53
2023-02-06T00:20:39.589Z,6.17
2023-02-06T00:23:06.808Z,5.07
2023-02-06T00:25:35.746Z,5.20
2023-02-06T00:28:03.178Z,4.90
2023-02-06T00:30:30.509Z,5.77
2023-02-06T00:33:13.168Z,5.63
2023-02-06T00:35:40.509Z,4.97
2023-02-06T00:38:08.851Z,5.53
2023-02-06T00:40:37.786Z,5.57
2023-02-06T00:43:36.216Z,6.27
2023-02-06T00:46:23.104Z,5.97
2023-02-06T00:48:50.688Z,5.53
2023-02-06T00:51:17.977Z,5.73
2023-02-06T00:53:45.186Z,6.77
2023-02-06T00:56:15.108Z,5.70
2023-02-06T00:58:42.319Z,5.90
2023-02-06T01:01:21.355Z,5.73
2023-02-06T01:03:49.062Z,5.07
2023-02-06T01:06:16.340Z,5.83
2023-02-06T01:08:43.817Z,6.73
2023-02-06T01:11:42.535Z,5.90
2023-02-06T01:17:49.990Z,6.37
2023-02-06T01:20:17.319Z,6.20
2023-02-06T01:22:44.712Z,6.60
2023-02-06T01:25:12.944Z,6.43
2023-02-06T01:27:40.621Z,6.17
2023-02-06T01:30:17.605Z,6.10
2023-02-06T01:32:44.945Z,5.83
2023-02-06T01:35:17.064Z,5.30
2023-02-06T01:37:44.334Z,6.10
2023-02-06T01:40:17.601Z,7.03
2023-02-06T01:43:03.776Z,5.03
2023-02-06T01:45:50.043Z,7.23
2023-02-06T01:48:19.431Z,7.40
2023-02-06T01:50:51.236Z,6.27
2023-02-06T01:53:18.977Z,6.27
2023-02-06T01:55:46.624Z,5.97
2023-02-06T01:58:16.297Z,5.40
2023-02-06T02:00:45.329Z,4.77
2023-02-06T02:03:13.886Z,8.07
2023-02-06T02:05:42.893Z,6.23
2023-02-06T02:08:15.855Z,5.63
2023-02-06T02:11:03.320Z,5.63
2023-02-06T02:13:43.286Z,5.27
2023-02-06T02:18:52.938Z,6.03
2023-02-06T02:21:36.066Z,7.10
2023-02-06T02:24:09.372Z,6.67
2023-02-06T02:26:51.523Z,5.23
2023-02-06T02:32:24.703Z,5.00
2023-02-06T02:35:03.543Z,5.20
2023-02-06T02:37:35.074Z,5.07
2023-02-06T02:40:08.048Z,6.77
2023-02-06T02:42:39.478Z,5.00
2023-02-06T02:51:46.415Z,6.37
2023-02-06T02:54:13.941Z,7.03
2023-02-06T02:56:41.570Z,5.57
2023-02-06T02:59:11.545Z,6.57
2023-02-06T03:01:41.504Z,5.77
2023-02-06T03:06:56.845Z,5.87
2023-02-06T03:09:29.054Z,5.83
2023-02-06T03:11:59.654Z,5.60
2023-02-06T03:21:16.331Z,5.00
2023-02-06T03:23:46.762Z,6.03
2023-02-06T03:26:15.912Z,4.73
2023-02-06T03:28:44.301Z,5.50
2023-02-06T03:31:14.441Z,4.67
2023-02-06T03:36:24.479Z,6.13
2023-02-06T03:38:53.831Z,4.70
2023-02-06T03:41:24.606Z,4.80
2023-02-06T03:50:41.427Z,4.83
2023-02-06T03:53:09.868Z,7.23
2023-02-06T03:55:39.369Z,4.70
2023-02-06T03:58:08.516Z,4.70
2023-02-06T04:00:36.473Z,5.67
2023-02-06T04:03:19.775Z,4.43
2023-02-06T04:05:47.200Z,4.93
2023-02-06T04:08:14.429Z,5.17
2023-02-06T04:10:43.017Z,5.13
2023-02-06T04:13:17.654Z,4.80
2023-02-06T04:19:20.093Z,4.47
2023-02-06T04:21:47.652Z,4.80
2023-02-06T04:24:15.059Z,5.57
2023-02-06T04:26:43.771Z,5.40
2023-02-06T04:29:11.031Z,5.13
2023-02-06T04:31:38.257Z,5.13
2023-02-06T04:34:08.917Z,4.50
2023-02-06T04:36:36.388Z,4.87
2023-02-06T04:39:04.351Z,4.00
2023-02-06T04:41:31.948Z,5.90
2023-02-06T04:50:25.067Z,6.40
2023-02-06T04:52:52.331Z,5.77
2023-02-06T04:55:19.662Z,4.80
2023-02-06T04:57:46.903Z,6.03
2023-02-06T05:00:16.737Z,4.83
2023-02-06T05:03:02.901Z,4.87
2023-02-06T05:05:30.373Z,5.37
2023-02-06T05:07:57.607Z,7.77
2023-02-06T05:10:24.946Z,4.70
2023-02-06T05:19:25.497Z,4.70
2023-02-06T05:21:52.823Z,7.03
2023-02-06T05:24:20.149Z,4.67
2023-02-06T05:26:47.595Z,5.37
2023-02-06T05:29:14.772Z,5.00
2023-02-06T05:34:25.750Z,5.13
2023-02-06T05:36:53.156Z,4.70
2023-02-06T05:39:20.504Z,6.97
2023-02-06T05:41:47.807Z,4.37
2023-02-06T05:44:15.378Z,5.50
2023-02-06T05:46:42.749Z,4.90
2023-02-06T05:49:29.783Z,4.40
2023-02-06T05:52:11.941Z,5.50
2023-02-06T05:54:39.241Z,4.83
2023-02-06T05:57:06.782Z,3.93
2023-02-06T05:59:34.102Z,5.90
2023-02-06T06:02:02.368Z,4.87
2023-02-06T06:04:31.033Z,5.40
2023-02-06T06:07:03.276Z,6.00
2023-02-06T06:09:30.551Z,7.20
2023-02-06T06:11:57.924Z,4.57
2023-02-06T06:14:25.193Z,4.50
2023-02-06T06:17:13.205Z,5.43
2023-02-06T06:23:20.372Z,5.17
2023-02-06T06:25:50.444Z,4.47
2023-02-06T06:28:17.951Z,5.87
2023-02-06T06:30:45.238Z,6.47
2023-02-06T06:33:12.604Z,5.73
2023-02-06T06:35:39.839Z,4.90
2023-02-06T06:38:07.296Z,4.77
2023-02-06T06:40:35.961Z,5.10
2023-02-06T06:43:03.193Z,5.30
2023-02-06T06:45:30.552Z,4.67
2023-02-06T06:47:58.180Z,5.57
2023-02-06T06:50:25.409Z,5.83
2023-02-06T06:52:53.017Z,5.03
2023-02-06T06:55:20.316Z,6.47
2023-02-06T06:57:48.947Z,4.77
2023-02-06T07:00:16.947Z,5.43
2023-02-06T07:02:44.239Z,5.13
2023-02-06T07:05:11.546Z,5.43
2023-02-06T07:07:38.784Z,5.27
2023-02-06T07:10:06.770Z,6.70
2023-02-06T07:12:34.354Z,5.77
2023-02-06T07:15:03.060Z,5.13
2023-02-06T07:17:30.344Z,3.67
2023-02-06T07:19:57.555Z,3.70
2023-02-06T07:22:24.980Z,5.07
2023-02-06T07:24:54.418Z,5.47
2023-02-06T07:27:21.780Z,6.70
2023-02-06T07:29:49.063Z,4.70
2023-02-06T07:32:17.668Z,5.53
2023-02-06T07:34:44.913Z,6.10
2023-02-06T07:37:27.273Z,5.53
2023-02-06T07:39:54.599Z,6.20
2023-02-06T07:42:21.835Z,5.67
2023-02-06T07:44:54.070Z,5.23
2023-02-06T07:50:57.660Z,5.13
2023-02-06T07:53:25.044Z,5.20
2023-02-06T07:55:52.311Z,5.57
2023-02-06T07:58:19.574Z,5.63
2023-02-06T08:00:46.855Z,5.40
2023-02-06T08:03:14.430Z,5.03
2023-02-06T08:05:54.164Z,4.97
2023-02-06T08:08:22.947Z,5.50
2023-02-06T08:10:50.182Z,6.23
2023-02-06T08:13:17.486Z,6.23
2023-02-06T08:15:53.867Z,5.00
2023-02-06T08:18:46.146Z,5.00
2023-02-06T08:21:14.174Z,5.07
2023-02-06T08:23:43.386Z,5.47
2023-02-06T08:26:11.653Z,5.10
2023-02-06T08:28:41.899Z,5.63
2023-02-06T08:31:10.064Z,5.03
2023-02-06T08:33:37.437Z,5.07
2023-02-06T08:36:05.603Z,5.63
2023-02-06T08:38:33.066Z,4.93
2023-02-06T08:41:02.047Z,4.90
2023-02-06T08:43:30.688Z,5.63
2023-02-06T08:46:29.321Z,8.63
2023-02-06T08:52:05.371Z,12.80
2023-02-06T08:54:35.539Z,8.77
2023-02-06T08:57:05.365Z,17.40
2023-02-06T08:59:32.637Z,31.97
2023-02-06T09:01:59.953Z,46.87
2023-02-06T09:07:18.307Z,8.77
2023-02-06T09:09:45.791Z,10.43
2023-02-06T09:12:14.811Z,10.70
2023-02-06T09:14:42.534Z,8.83
2023-02-06T09:17:12.991Z,8.00
2023-02-06T09:20:02.256Z,6.47
2023-02-06T09:26:02.329Z,6.73
2023-02-06T09:28:31.115Z,7.03
2023-02-06T09:30:58.544Z,5.67
2023-02-06T09:33:25.926Z,7.23
2023-02-06T09:36:01.814Z,5.70
2023-02-06T09:38:29.155Z,6.67
2023-02-06T09:40:57.167Z,6.67
2023-02-06T09:43:24.807Z,7.03
2023-02-06T09:45:55.924Z,5.70
2023-02-06T09:48:24.432Z,4.60
2023-02-06T09:50:56.220Z,5.17
2023-02-06T09:53:26.081Z,5.47
2023-02-06T10:01:39.040Z,7.23
2023-02-06T10:04:20.257Z,5.20
2023-02-06T10:06:49.900Z,6.17
2023-02-06T10:09:19.764Z,5.73
2023-02-06T10:11:48.727Z,5.50
2023-02-06T10:14:29.876Z,5.53
2023-02-06T10:17:00.498Z,5.60
2023-02-06T10:19:34.695Z,5.00
2023-02-06T10:22:04.228Z,5.10
2023-02-06T10:24:57.593Z,4.63
2023-02-06T10:27:47.335Z,4.97
2023-02-06T10:30:21.441Z,5.03
2023-02-06T10:32:53.553Z,5.70
2023-02-06T10:35:25.413Z,6.40
2023-02-06T10:38:02.523Z,6.37
2023-02-06T10:40:31.980Z,4.10
2023-02-06T10:43:14.560Z,5.10
2023-02-06T10:45:45.765Z,5.07
2023-02-06T10:48:19.974Z,3.70
2023-02-06T10:50:49.849Z,6.33
2023-02-06T10:53:20.966Z,5.43
2023-02-06T10:56:10.363Z,4.67
2023-02-06T10:58:52.934Z,3.87
2023-02-06T11:01:26.336Z,4.40
2023-02-06T11:04:00.314Z,4.43
2023-02-06T11:06:29.179Z,5.20
2023-02-06T11:08:56.727Z,5.77
2023-02-06T11:11:24.977Z,5.47
2023-02-06T11:13:55.260Z,7.40
2023-02-06T11:16:25.488Z,3.93
2023-02-06T11:18:53.410Z,5.10
2023-02-06T11:21:36.890Z,5.10
2023-02-06T11:24:12.730Z,5.73
2023-02-06T11:26:41.292Z,5.23
2023-02-06T11:29:29.575Z,5.13
2023-02-06T11:32:19.351Z,5.20
2023-02-06T11:34:54.210Z,4.87
2023-02-06T11:37:32.389Z,5.37
2023-02-06T11:53:22.801Z,4.60
2023-02-06T11:55:59.592Z,5.10
2023-02-06T12:01:16.802Z,6.00
2023-02-06T12:03:52.278Z,4.60
2023-02-06T12:06:24.240Z,4.50
2023-02-06T12:08:53.862Z,4.23
2023-02-06T12:11:24.082Z,4.63
2023-02-06T12:20:47.648Z,5.47
2023-02-06T12:23:17.360Z,4.50
2023-02-06T12:25:48.870Z,4.67
2023-02-06T12:28:30.553Z,3.93
2023-02-06T12:30:59.486Z,3.83
2023-02-06T12:33:28.680Z,4.60
2023-02-06T12:35:57.536Z,4.67
2023-02-06T12:38:32.308Z,4.53
2023-02-06T12:41:08.007Z,4.20
2023-02-06T12:46:27.145Z,4.00
2023-02-06T12:48:57.697Z,5.03
2023-02-06T12:51:26.796Z,4.53
2023-02-06T12:57:45.960Z,3.13
2023-02-06T13:00:23.008Z,4.13
2023-02-06T13:03:01.740Z,4.23
2023-02-06T13:05:30.347Z,3.67
2023-02-06T13:07:58.804Z,3.20
2023-02-06T13:10:26.707Z,4.00
2023-02-06T13:13:25.236Z,4.37
2023-02-06T13:15:53.959Z,3.50
2023-02-06T13:18:51.044Z,3.93
2023-02-06T13:21:21.164Z,3.63
2023-02-06T13:27:22.820Z,4.33
2023-02-06T13:29:51.890Z,3.60
2023-02-06T13:32:32.580Z,3.87
2023-02-06T13:35:05.804Z,4.23
2023-02-06T13:37:34.523Z,2.90
2023-02-06T13:40:26.828Z,3.90
2023-02-06T13:45:32.428Z,4.43
2023-02-06T13:48:15.831Z,3.40
2023-02-06T13:50:51.743Z,3.53
2023-02-06T13:53:31.601Z,3.53
2023-02-06T13:56:05.004Z,3.53
2023-02-06T14:05:15.006Z,3.87
2023-02-06T14:07:50.496Z,2.80
2023-02-06T14:10:26.091Z,4.07
2023-02-06T14:13:14.873Z,3.93
2023-02-06T14:15:48.376Z,3.33
2023-02-06T14:18:25.674Z,3.40
2023-02-06T14:20:57.462Z,3.77
2023-02-06T14:23:32.593Z,4.63
2023-02-06T14:26:05.206Z,4.87
2023-02-06T14:28:38.274Z,3.13
2023-02-06T14:31:09.807Z,3.67
2023-02-06T14:33:45.172Z,3.23
2023-02-06T14:36:19.962Z,3.83
2023-02-06T14:39:04.881Z,3.80
2023-02-06T14:41:32.818Z,5.03
2023-02-06T14:47:54.142Z,4.50
2023-02-06T14:50:22.577Z,4.63
2023-02-06T14:52:52.988Z,4.50
2023-02-06T14:55:29.965Z,3.30
2023-02-06T14:57:57.513Z,3.40
2023-02-06T15:00:24.997Z,4.77
2023-02-06T15:03:09.378Z,3.77
2023-02-06T15:05:36.923Z,3.77
2023-02-06T15:08:06.791Z,4.87
2023-02-06T15:10:35.615Z,3.80
2023-02-06T15:19:48.023Z,4.20
2023-02-06T15:22:16.440Z,4.70
2023-02-06T15:24:55.211Z,3.73
2023-02-06T15:27:26.858Z,5.00
2023-02-06T15:29:54.306Z,4.27
2023-02-06T15:32:40.698Z,4.80
2023-02-06T15:35:19.282Z,4.13
2023-02-06T15:37:46.675Z,4.50
2023-02-06T15:40:17.237Z,4.20
2023-02-06T15:46:41.239Z,4.40
2023-02-06T15:49:15.162Z,4.37
2023-02-06T15:51:50.465Z,5.57
2023-02-06T15:54:19.922Z,4.77
2023-02-06T15:56:50.068Z,4.33
2023-02-06T15:59:19.137Z,4.10
2023-02-06T16:02:01.956Z,4.27
2023-02-06T16:04:31.065Z,5.30
2023-02-06T16:07:04.038Z,5.17
2023-02-06T16:09:31.423Z,6.37
2023-02-06T16:18:45.814Z,4.77
2023-02-06T16:21:27.951Z,3.97
2023-02-06T16:24:03.612Z,4.43
2023-02-06T16:26:31.799Z,4.57
2023-02-06T16:29:00.429Z,4.03
2023-02-06T16:31:48.347Z,4.67
2023-02-06T16:34:30.657Z,4.53
2023-02-06T16:36:59.495Z,3.73
2023-02-06T16:39:26.782Z,4.20
2023-02-06T16:48:38.985Z,3.93
2023-02-06T16:51:06.499Z,3.67
2023-02-06T16:53:35.086Z,3.60
2023-02-06T16:56:02.734Z,4.10
2023-02-06T16:58:30.043Z,3.60
2023-02-06T17:00:57.470Z,3.47
2023-02-06T17:03:24.900Z,4.43
2023-02-06T17:05:54.557Z,3.80
2023-02-06T17:08:23.556Z,4.60
2023-02-06T17:10:52.529Z,3.90
2023-02-06T17:13:22.134Z,3.83
2023-02-06T17:15:49.854Z,3.87
2023-02-06T17:18:17.689Z,3.97
2023-02-06T17:20:46.217Z,4.27
2023-02-06T17:23:13.533Z,3.83
2023-02-06T17:25:42.314Z,4.10
2023-02-06T17:28:12.435Z,4.47
2023-02-06T17:30:40.065Z,3.03
2023-02-06T17:33:07.532Z,4.67
2023-02-06T17:35:37.350Z,5.37
2023-02-06T17:38:05.146Z,3.63
2023-02-06T17:40:33.503Z,4.00
2023-02-06T17:43:03.699Z,4.23
2023-02-06T17:45:33.074Z,4.10
2023-02-06T17:48:00.384Z,4.20
2023-02-06T17:50:28.192Z,4.60
2023-02-06T17:52:55.391Z,5.27
2023-02-06T17:55:23.042Z,4.87
2023-02-06T17:57:50.377Z,3.73
2023-02-06T18:00:18.891Z,4.03
2023-02-06T18:02:47.862Z,4.17
2023-02-06T18:05:15.622Z,4.70
2023-02-06T18:07:42.979Z,4.07
2023-02-06T18:10:10.324Z,4.33
2023-02-06T18:12:37.713Z,5.73
2023-02-06T18:15:05.204Z,4.90
2023-02-06T18:17:32.493Z,5.13
2023-02-06T18:20:01.249Z,4.23
2023-02-06T18:22:28.624Z,4.37
2023-02-06T18:24:56.020Z,3.90
2023-02-06T18:27:23.341Z,4.70
2023-02-06T18:30:12.886Z,6.40
2023-02-06T18:32:40.477Z,4.80
2023-02-06T18:35:10.548Z,6.77
2023-02-06T18:37:37.907Z,4.43
2023-02-06T18:40:05.896Z,5.30
2023-02-06T18:46:17.812Z,5.33
2023-02-06T18:48:45.108Z,5.47
2023-02-06T18:51:13.790Z,5.77
2023-02-06T18:53:41.117Z,5.10
2023-02-06T18:56:08.442Z,6.00
2023-02-06T18:58:35.687Z,5.53
2023-02-06T19:01:13.165Z,5.53
2023-02-06T19:03:40.469Z,5.17
2023-02-06T19:06:11.605Z,5.20
2023-02-06T19:08:43.205Z,5.80
2023-02-06T19:17:21.277Z,5.63
2023-02-06T19:19:48.553Z,6.30
2023-02-06T19:22:15.778Z,6.00
2023-02-06T19:24:44.508Z,6.23
2023-02-06T19:27:12.076Z,5.73
2023-02-06T19:32:28.446Z,6.00
2023-02-06T19:34:55.836Z,6.13
2023-02-06T19:37:23.047Z,6.43
2023-02-06T19:39:52.077Z,5.20
2023-02-06T19:42:19.437Z,6.07
2023-02-06T19:45:23.804Z,6.37
2023-02-06T19:51:44.595Z,5.83
2023-02-06T19:54:11.960Z,7.50
2023-02-06T19:56:42.323Z,5.63
2023-02-06T20:02:03.429Z,6.43
2023-02-06T20:04:32.576Z,6.80
2023-02-06T20:07:00.025Z,7.53
2023-02-06T20:09:28.081Z,5.63
2023-02-06T20:11:57.004Z,5.50
2023-02-06T20:17:34.405Z,6.57
2023-02-06T20:20:01.785Z,7.00
2023-02-06T20:22:29.170Z,6.27
2023-02-06T20:32:08.618Z,5.73
2023-02-06T20:34:36.367Z,5.37
2023-02-06T20:37:03.982Z,5.33
2023-02-06T20:39:31.312Z,6.13
2023-02-06T20:41:59.086Z,6.53
2023-02-06T20:47:10.036Z,5.97
2023-02-06T20:49:37.399Z,6.77
2023-02-06T20:52:04.691Z,7.13
2023-02-06T21:01:42.645Z,6.77
2023-02-06T21:04:12.470Z,7.63
2023-02-06T21:06:39.965Z,6.43
2023-02-06T21:09:08.337Z,7.30
2023-02-06T21:11:36.609Z,7.53
2023-02-06T21:16:40.014Z,7.33
2023-02-06T21:19:08.441Z,7.00
2023-02-06T21:21:37.078Z,7.13
2023-02-06T21:31:10.694Z,5.80
2023-02-06T21:33:39.297Z,6.53
2023-02-06T21:36:07.405Z,6.83
2023-02-06T21:38:36.399Z,6.83
2023-02-06T21:41:04.636Z,5.80
2023-02-06T21:43:31.897Z,6.20
2023-02-06T21:45:59.198Z,6.67
2023-02-06T21:48:26.466Z,5.97
2023-02-06T21:50:53.721Z,6.20
2023-02-06T21:53:21.122Z,7.03
2023-02-06T21:55:50.034Z,7.50
2023-02-06T21:58:17.428Z,6.57
2023-02-06T22:00:45.710Z,6.97
2023-02-06T22:03:13.404Z,7.17
2023-02-06T22:05:40.925Z,7.00
2023-02-06T22:08:08.206Z,6.57
2023-02-06T22:10:36.161Z,5.73
2023-02-06T22:13:05.885Z,6.20
2023-02-06T22:15:33.621Z,6.30
2023-02-06T22:18:00.895Z,6.80
2023-02-06T22:20:28.430Z,6.50
2023-02-06T22:22:56.074Z,6.50
2023-02-06T22:25:23.510Z,5.87
2023-02-06T22:27:50.787Z,6.87
2023-02-06T22:30:19.489Z,6.00
2023-02-06T22:32:56.063Z,6.60
2023-02-06T22:35:23.672Z,6.80
2023-02-06T22:37:50.892Z,6.40
2023-02-06T22:40:18.260Z,6.17
2023-02-06T22:42:45.456Z,6.50
2023-02-06T22:45:12.702Z,6.17
2023-02-06T22:47:41.317Z,7.10
2023-02-06T22:50:08.823Z,6.87
2023-02-06T22:52:36.150Z,7.00
2023-02-06T22:55:03.782Z,7.47
2023-02-06T22:57:31.096Z,8.87
2023-02-06T22:59:58.373Z,7.47
2023-02-06T23:02:25.920Z,7.33
2023-02-06T23:04:54.513Z,7.87
2023-02-06T23:07:21.767Z,9.20
2023-02-06T23:09:49.059Z,8.43
2023-02-06T23:12:16.285Z,8.37
2023-02-06T23:14:43.836Z,8.13
2023-02-06T23:17:11.125Z,8.07
2023-02-06T23:19:38.875Z,8.33
2023-02-06T23:22:07.460Z,8.67
2023-02-06T23:24:34.658Z,7.77
2023-02-06T23:27:01.959Z,8.63
2023-02-06T23:29:29.257Z,6.30
2023-02-06T23:31:56.438Z,6.80
2023-02-06T23:34:23.928Z,7.13
2023-02-06T23:36:51.241Z,8.13
2023-02-06T23:39:19.833Z,7.20
2023-02-06T23:41:47.116Z,6.67
2023-02-06T23:44:14.397Z,7.27
2023-02-06T23:46:41.875Z,8.23
2023-02-06T23:49:09.656Z,8.47
2023-02-06T23:51:37.440Z,7.70
2023-02-06T23:54:05.104Z,8.60
2023-02-06T23:56:34.042Z,6.83
2023-02-06T23:59:02.318Z,6.17
